createdAt,value
2018-05-14T00:00:41.259Z,0.00
2018-05-14T00:01:41.170Z,0.00
2018-05-14T00:02:41.967Z,0.00
2018-05-14T00:03:41.140Z,0.00
2018-05-14T00:04:41.963Z,0.00
2018-05-14T00:05:41.131Z,0.00
2018-05-14T00:06:41.049Z,0.00
2018-05-14T00:07:41.027Z,0.00
2018-05-14T00:08:41.005Z,0.00
2018-05-14T00:09:41.975Z,0.00
2018-05-14T00:10:40.997Z,0.00
2018-05-14T00:11:40.987Z,0.00
2018-05-14T00:12:41.466Z,0.00
2018-05-14T00:13:40.886Z,0.00
2018-05-14T00:14:40.859Z,0.00
2018-05-14T00:15:41.474Z,0.00
2018-05-14T00:16:40.868Z,0.00
2018-05-14T00:17:40.788Z,0.00
2018-05-14T00:18:41.026Z,0.00
2018-05-14T00:19:40.743Z,0.00
2018-05-14T00:20:40.721Z,0.00
2018-05-14T00:21:41.023Z,0.00
2018-05-14T00:22:40.668Z,0.00
2018-05-14T00:23:40.648Z,0.00
2018-05-14T00:24:40.681Z,0.00
2018-05-14T00:25:40.602Z,0.00
2018-05-14T00:26:41.035Z,0.00
2018-05-14T00:27:40.550Z,0.00
2018-05-14T00:28:40.528Z,0.00
2018-05-14T00:29:40.504Z,0.00
2018-05-14T00:30:40.479Z,0.00
2018-05-14T00:31:40.518Z,0.00
2018-05-14T00:32:40.428Z,0.00
2018-05-14T00:33:40.970Z,0.00
2018-05-14T00:34:40.389Z,0.00
2018-05-14T00:35:40.365Z,0.00
2018-05-14T00:36:40.533Z,0.00
2018-05-14T00:37:40.369Z,0.00
2018-05-14T00:38:40.287Z,0.00
2018-05-14T00:39:40.272Z,0.00
2018-05-14T00:40:40.243Z,0.00
2018-05-14T00:41:40.970Z,0.00
2018-05-14T00:42:40.247Z,0.00
2018-05-14T00:43:40.170Z,0.00
2018-05-14T00:44:40.975Z,0.00
2018-05-14T00:45:40.118Z,0.00
2018-05-14T00:46:40.095Z,0.00
2018-05-14T00:47:40.533Z,0.00
2018-05-14T00:48:40.108Z,0.00
2018-05-14T00:49:40.026Z,0.00
2018-05-14T00:50:40.003Z,0.00
2018-05-14T00:51:41.637Z,0.00
2018-05-14T00:52:39.985Z,0.00
2018-05-14T00:53:40.028Z,0.00
2018-05-14T00:54:40.069Z,0.00
2018-05-14T00:55:40.477Z,0.00
2018-05-14T00:56:39.853Z,0.00
2018-05-14T00:57:39.831Z,0.00
2018-05-14T00:58:40.034Z,0.00
2018-05-14T00:59:39.828Z,0.00
2018-05-14T01:00:39.830Z,0.00
2018-05-14T01:01:39.733Z,0.00
2018-05-14T01:02:40.488Z,0.00
2018-05-14T01:03:39.747Z,0.00
2018-05-14T01:04:39.674Z,0.00
2018-05-14T01:05:40.485Z,0.00
2018-05-14T01:06:39.620Z,0.00
2018-05-14T01:07:39.595Z,0.00
2018-05-14T01:08:39.608Z,0.00
2018-05-14T01:09:39.542Z,0.00
2018-05-14T01:10:39.520Z,0.00
2018-05-14T01:11:39.539Z,0.00
2018-05-14T01:12:39.980Z,0.00
2018-05-14T01:13:39.442Z,0.00
2018-05-14T01:14:39.465Z,0.00
2018-05-14T01:15:39.550Z,0.00
2018-05-14T01:16:39.383Z,0.00
2018-05-14T01:17:39.351Z,0.00
2018-05-14T01:18:39.993Z,0.00
2018-05-14T01:19:39.299Z,0.00
2018-05-14T01:20:39.319Z,0.00
2018-05-14T01:21:39.248Z,0.00
2018-05-14T01:22:39.978Z,0.00
2018-05-14T01:23:39.202Z,0.00
2018-05-14T01:24:39.986Z,0.00
2018-05-14T01:25:39.243Z,0.00
2018-05-14T01:26:39.127Z,0.00
2018-05-14T01:27:39.987Z,0.00
2018-05-14T01:28:39.079Z,0.00
2018-05-14T01:29:39.056Z,0.00
2018-05-14T01:30:39.083Z,0.00
2018-05-14T01:31:39.002Z,0.00
2018-05-14T01:32:38.980Z,0.00
2018-05-14T01:33:38.956Z,0.00
2018-05-14T01:34:39.486Z,0.00
2018-05-14T01:35:38.982Z,0.00
2018-05-14T01:36:38.887Z,0.00
2018-05-14T01:37:39.046Z,0.00
2018-05-14T01:38:38.836Z,0.00
2018-05-14T01:39:38.807Z,0.00
2018-05-14T01:40:39.486Z,0.00
2018-05-14T01:41:38.757Z,0.00
2018-05-14T01:42:38.770Z,0.00
2018-05-14T01:43:39.483Z,0.00
2018-05-14T01:44:38.682Z,0.00
2018-05-14T01:45:38.661Z,0.00
2018-05-14T01:46:38.639Z,0.00
2018-05-14T01:47:38.650Z,0.00
2018-05-14T01:48:38.596Z,0.00
2018-05-14T01:49:38.563Z,0.00
2018-05-14T01:50:38.540Z,0.00
2018-05-14T01:51:39.496Z,0.00
2018-05-14T01:52:38.530Z,0.00
2018-05-14T01:53:38.525Z,0.00
2018-05-14T01:54:38.985Z,0.00
2018-05-14T01:55:38.420Z,0.00
2018-05-14T01:56:38.385Z,0.00
2018-05-14T01:57:38.989Z,0.00
2018-05-14T01:58:38.384Z,0.00
2018-05-14T01:59:38.545Z,0.00
2018-05-14T02:00:38.293Z,0.00
2018-05-14T02:01:38.264Z,0.00
2018-05-14T02:02:38.986Z,0.00
2018-05-14T02:03:38.282Z,0.00
2018-05-14T02:04:38.197Z,0.00
2018-05-14T02:05:38.988Z,0.00
2018-05-14T02:06:38.137Z,0.00
2018-05-14T02:07:38.991Z,0.00
2018-05-14T02:08:38.139Z,0.00
2018-05-14T02:09:38.062Z,0.00
2018-05-14T02:10:38.987Z,0.00
2018-05-14T02:11:38.012Z,0.00
2018-05-14T02:12:38.490Z,0.00
2018-05-14T02:13:38.005Z,0.00
2018-05-14T02:14:37.939Z,0.00
2018-05-14T02:15:38.050Z,0.00
2018-05-14T02:16:37.886Z,0.00
2018-05-14T02:17:38.493Z,0.00
2018-05-14T02:18:37.835Z,0.00
2018-05-14T02:19:37.812Z,0.00
2018-05-14T02:20:37.843Z,0.00
2018-05-14T02:21:38.498Z,0.00
2018-05-14T02:22:37.738Z,0.00
2018-05-14T02:23:37.713Z,0.00
2018-05-14T02:24:37.733Z,0.00
2018-05-14T02:25:38.491Z,0.00
2018-05-14T02:26:37.684Z,0.00
2018-05-14T02:27:37.610Z,0.00
2018-05-14T02:28:37.588Z,0.00
2018-05-14T02:29:38.498Z,0.00
2018-05-14T02:30:37.579Z,4.00
2018-05-14T02:31:37.510Z,4.00
2018-05-14T02:32:37.530Z,0.00
2018-05-14T02:33:37.459Z,0.00
2018-05-14T02:34:37.434Z,4.00
2018-05-14T02:35:37.407Z,4.00
2018-05-14T02:36:37.995Z,0.00
2018-05-14T02:37:37.402Z,4.00
2018-05-14T02:38:37.336Z,8.00
2018-05-14T02:39:37.368Z,4.00
2018-05-14T02:40:37.993Z,4.00
2018-05-14T02:41:37.258Z,8.00
2018-05-14T02:42:37.275Z,8.00
2018-05-14T02:43:37.208Z,8.00
2018-05-14T02:44:37.995Z,12.00
2018-05-14T02:45:37.159Z,12.00
2018-05-14T02:46:37.138Z,12.00
2018-05-14T02:47:37.144Z,16.00
2018-05-14T02:48:37.612Z,20.00
2018-05-14T02:49:37.058Z,24.00
2018-05-14T02:50:37.038Z,24.00
2018-05-14T02:51:37.023Z,28.00
2018-05-14T02:52:36.982Z,32.00
2018-05-14T02:53:37.004Z,36.00
2018-05-14T02:54:37.497Z,40.00
2018-05-14T02:55:36.900Z,44.00
2018-05-14T02:56:36.878Z,48.00
2018-05-14T02:57:37.503Z,60.00
2018-05-14T02:58:36.893Z,64.00
2018-05-14T02:59:37.506Z,72.00
2018-05-14T03:00:36.777Z,80.00
2018-05-14T03:01:36.749Z,92.00
2018-05-14T03:02:36.732Z,100.00
2018-05-14T03:03:37.564Z,108.00
2018-05-14T03:04:36.674Z,120.00
2018-05-14T03:05:36.648Z,132.00
2018-05-14T03:06:36.624Z,144.00
2018-05-14T03:07:36.596Z,160.00
2018-05-14T03:08:36.619Z,176.00
2018-05-14T03:09:36.545Z,192.00
2018-05-14T03:10:36.522Z,208.00
2018-05-14T03:11:36.496Z,228.00
2018-05-14T03:12:36.475Z,244.00
2018-05-14T03:13:36.557Z,268.00
2018-05-14T03:14:36.471Z,288.00
2018-05-14T03:15:36.432Z,312.00
2018-05-14T03:16:36.374Z,336.00
2018-05-14T03:17:36.350Z,356.00
2018-05-14T03:18:36.328Z,384.00
2018-05-14T03:19:36.340Z,412.00
2018-05-14T03:20:36.267Z,444.00
2018-05-14T03:21:36.257Z,472.00
2018-05-14T03:22:36.216Z,504.00
2018-05-14T03:23:36.190Z,536.00
2018-05-14T03:24:36.217Z,572.00
2018-05-14T03:25:36.141Z,608.00
2018-05-14T03:26:36.156Z,644.00
2018-05-14T03:27:36.089Z,676.00
2018-05-14T03:28:36.060Z,716.00
2018-05-14T03:29:36.090Z,760.00
2018-05-14T03:30:36.060Z,800.00
2018-05-14T03:31:35.992Z,840.00
2018-05-14T03:32:36.930Z,884.00
2018-05-14T03:33:35.936Z,928.00
2018-05-14T03:34:35.963Z,968.00
2018-05-14T03:35:35.940Z,1008.00
2018-05-14T03:36:35.856Z,1056.00
2018-05-14T03:37:35.836Z,1104.00
2018-05-14T03:38:35.809Z,1144.00
2018-05-14T03:39:35.796Z,1184.00
2018-05-14T03:40:35.825Z,1224.00
2018-05-14T03:41:35.776Z,1268.00
2018-05-14T03:42:35.715Z,1300.00
2018-05-14T03:43:35.685Z,1340.00
2018-05-14T03:44:35.655Z,1380.00
2018-05-14T03:45:35.644Z,1424.00
2018-05-14T03:46:35.649Z,1480.00
2018-05-14T03:47:35.598Z,1540.00
2018-05-14T03:48:35.565Z,1616.00
2018-05-14T03:49:35.529Z,1708.00
2018-05-14T03:50:35.507Z,1736.00
2018-05-14T03:51:35.528Z,1800.00
2018-05-14T03:52:35.459Z,1924.00
2018-05-14T03:53:35.430Z,2000.00
2018-05-14T03:54:35.405Z,2300.00
2018-05-14T03:55:35.390Z,2560.00
2018-05-14T03:56:35.396Z,2408.00
2018-05-14T03:57:35.330Z,2036.00
2018-05-14T03:58:35.345Z,2048.00
2018-05-14T03:59:35.277Z,2080.00
2018-05-14T04:00:35.252Z,2124.00
2018-05-14T04:01:35.234Z,2172.00
2018-05-14T04:02:35.255Z,2208.00
2018-05-14T04:03:35.184Z,2252.00
2018-05-14T04:04:35.149Z,2296.00
2018-05-14T04:05:35.128Z,2356.00
2018-05-14T04:06:35.104Z,2440.00
2018-05-14T04:07:35.119Z,2460.00
2018-05-14T04:08:35.097Z,3084.00
2018-05-14T04:09:35.027Z,3388.00
2018-05-14T04:10:35.003Z,3620.00
2018-05-14T04:11:35.020Z,3552.00
2018-05-14T04:12:34.950Z,3348.00
2018-05-14T04:13:34.941Z,2972.00
2018-05-14T04:14:34.964Z,2880.00
2018-05-14T04:15:34.877Z,2836.00
2018-05-14T04:16:34.868Z,2884.00
2018-05-14T04:17:34.841Z,2936.00
2018-05-14T04:18:34.855Z,3016.00
2018-05-14T04:19:34.821Z,2908.00
2018-05-14T04:20:34.752Z,2912.00
2018-05-14T04:21:34.730Z,2944.00
2018-05-14T04:22:34.705Z,2964.00
2018-05-14T04:23:34.729Z,2988.00
2018-05-14T04:24:34.661Z,3028.00
2018-05-14T04:25:34.632Z,3056.00
2018-05-14T04:26:34.603Z,3072.00
2018-05-14T04:27:34.580Z,3100.00
2018-05-14T04:28:34.608Z,3124.00
2018-05-14T04:29:34.530Z,3148.00
2018-05-14T04:30:34.560Z,3164.00
2018-05-14T04:31:35.018Z,3276.00
2018-05-14T04:32:34.462Z,3212.00
2018-05-14T04:33:34.441Z,3236.00
2018-05-14T04:34:34.409Z,3312.00
2018-05-14T04:35:34.424Z,3268.00
2018-05-14T04:36:34.361Z,3288.00
2018-05-14T04:37:34.335Z,3312.00
2018-05-14T04:38:34.312Z,3356.00
2018-05-14T04:39:34.330Z,3444.00
2018-05-14T04:40:34.315Z,3444.00
2018-05-14T04:41:34.242Z,3464.00
2018-05-14T04:42:35.021Z,3520.00
2018-05-14T04:43:34.199Z,3616.00
2018-05-14T04:44:34.212Z,3608.00
2018-05-14T04:45:34.148Z,3656.00
2018-05-14T04:46:34.137Z,3696.00
2018-05-14T04:47:34.147Z,3736.00
2018-05-14T04:48:34.072Z,3780.00
2018-05-14T04:49:34.102Z,3820.00
2018-05-14T04:50:34.026Z,3860.00
2018-05-14T04:51:34.080Z,3904.00
2018-05-14T04:52:33.971Z,3948.00
2018-05-14T04:53:33.951Z,4004.00
2018-05-14T04:54:33.966Z,4120.00
2018-05-14T04:55:33.908Z,4120.00
2018-05-14T04:56:33.876Z,4144.00
2018-05-14T04:57:33.914Z,4292.00
2018-05-14T04:58:33.825Z,4256.00
2018-05-14T04:59:33.833Z,4520.00
2018-05-14T05:00:33.830Z,4756.00
2018-05-14T05:01:33.754Z,5900.00
2018-05-14T05:02:33.732Z,6484.00
2018-05-14T05:03:33.757Z,6964.00
2018-05-14T05:04:33.688Z,6948.00
2018-05-14T05:05:33.658Z,6508.00
2018-05-14T05:06:33.635Z,6664.00
2018-05-14T05:07:33.611Z,6056.00
2018-05-14T05:08:33.640Z,5356.00
2018-05-14T05:09:33.569Z,4996.00
2018-05-14T05:10:33.598Z,5388.00
2018-05-14T05:11:33.590Z,5628.00
2018-05-14T05:12:33.502Z,6364.00
2018-05-14T05:13:33.513Z,9072.00
2018-05-14T05:14:33.456Z,11852.00
2018-05-14T05:15:33.468Z,11808.00
2018-05-14T05:16:33.406Z,14664.00
2018-05-14T05:17:33.377Z,15936.00
2018-05-14T05:18:33.355Z,17440.00
2018-05-14T05:19:33.391Z,19296.00
2018-05-14T05:20:33.307Z,19392.00
2018-05-14T05:21:33.289Z,17248.00
2018-05-14T05:22:33.261Z,11336.00
2018-05-14T05:23:33.239Z,7876.00
2018-05-14T05:24:33.263Z,5760.00
2018-05-14T05:25:33.242Z,5716.00
2018-05-14T05:26:33.177Z,6964.00
2018-05-14T05:27:33.155Z,6772.00
2018-05-14T05:28:33.178Z,6276.00
2018-05-14T05:29:33.109Z,10352.00
2018-05-14T05:30:33.085Z,8644.00
2018-05-14T05:31:33.111Z,6020.00
2018-05-14T05:32:33.041Z,5460.00
2018-05-14T05:33:33.023Z,5440.00
2018-05-14T05:34:33.088Z,5376.00
2018-05-14T05:35:33.003Z,5368.00
2018-05-14T05:36:33.947Z,5376.00
2018-05-14T05:37:32.977Z,5392.00
2018-05-14T05:38:32.912Z,5400.00
2018-05-14T05:39:32.886Z,5432.00
2018-05-14T05:40:32.874Z,5448.00
2018-05-14T05:41:32.881Z,5476.00
2018-05-14T05:42:32.818Z,5488.00
2018-05-14T05:43:32.796Z,5504.00
2018-05-14T05:44:32.774Z,5532.00
2018-05-14T05:45:32.797Z,5556.00
2018-05-14T05:46:32.775Z,5580.00
2018-05-14T05:47:32.752Z,5604.00
2018-05-14T05:48:32.706Z,5628.00
2018-05-14T05:49:32.685Z,5648.00
2018-05-14T05:50:32.637Z,5664.00
2018-05-14T05:51:32.617Z,5680.00
2018-05-14T05:52:32.714Z,5712.00
2018-05-14T05:53:32.569Z,5740.00
2018-05-14T05:54:32.553Z,5756.00
2018-05-14T05:55:32.532Z,5792.00
2018-05-14T05:56:32.547Z,5808.00
2018-05-14T05:57:32.480Z,5832.00
2018-05-14T05:58:32.459Z,5844.00
2018-05-14T05:59:32.447Z,5868.00
2018-05-14T06:00:32.470Z,5892.00
2018-05-14T06:01:32.396Z,5920.00
2018-05-14T06:02:32.409Z,5928.00
2018-05-14T06:03:32.347Z,5944.00
2018-05-14T06:04:32.322Z,5972.00
2018-05-14T06:05:32.299Z,5992.00
2018-05-14T06:06:32.340Z,6000.00
2018-05-14T06:07:32.300Z,6004.00
2018-05-14T06:08:32.302Z,6012.00
2018-05-14T06:09:32.303Z,6012.00
2018-05-14T06:10:32.207Z,6016.00
2018-05-14T06:11:32.164Z,6024.00
2018-05-14T06:12:32.152Z,6028.00
2018-05-14T06:13:32.177Z,6040.00
2018-05-14T06:14:32.100Z,6040.00
2018-05-14T06:15:32.176Z,6048.00
2018-05-14T06:16:32.052Z,6044.00
2018-05-14T06:17:32.034Z,6044.00
2018-05-14T06:18:32.067Z,6040.00
2018-05-14T06:19:31.983Z,6052.00
2018-05-14T06:20:31.960Z,6064.00
2018-05-14T06:21:31.939Z,6076.00
2018-05-14T06:22:31.916Z,6096.00
2018-05-14T06:23:31.946Z,6120.00
2018-05-14T06:24:31.925Z,6148.00
2018-05-14T06:25:31.852Z,6156.00
2018-05-14T06:26:31.852Z,6160.00
2018-05-14T06:27:31.812Z,6164.00
2018-05-14T06:28:31.781Z,6156.00
2018-05-14T06:29:31.839Z,6164.00
2018-05-14T06:30:31.736Z,6156.00
2018-05-14T06:31:31.717Z,6168.00
2018-05-14T06:32:31.693Z,6164.00
2018-05-14T06:33:31.674Z,6164.00
2018-05-14T06:34:31.849Z,6164.00
2018-05-14T06:35:31.666Z,6168.00
2018-05-14T06:36:31.607Z,6180.00
2018-05-14T06:37:31.585Z,6176.00
2018-05-14T06:38:31.574Z,6180.00
2018-05-14T06:39:31.590Z,6180.00
2018-05-14T06:40:31.519Z,6176.00
2018-05-14T06:41:31.496Z,6188.00
2018-05-14T06:42:31.475Z,6184.00
2018-05-14T06:43:31.452Z,6188.00
2018-05-14T06:44:31.485Z,6204.00
2018-05-14T06:45:31.404Z,6200.00
2018-05-14T06:46:31.382Z,6212.00
2018-05-14T06:47:31.363Z,6228.00
2018-05-14T06:48:31.353Z,6228.00
2018-05-14T06:49:31.362Z,6232.00
2018-05-14T06:50:31.360Z,6240.00
2018-05-14T06:51:31.271Z,6244.00
2018-05-14T06:52:31.252Z,6256.00
2018-05-14T06:53:31.231Z,6260.00
2018-05-14T06:54:31.210Z,6272.00
2018-05-14T06:55:31.234Z,6284.00
2018-05-14T06:56:31.167Z,6284.00
2018-05-14T06:57:31.146Z,6268.00
2018-05-14T06:58:31.119Z,6272.00
2018-05-14T06:59:31.104Z,6264.00
2018-05-14T07:00:31.124Z,6240.00
2018-05-14T07:01:31.056Z,6224.00
2018-05-14T07:02:31.080Z,6204.00
2018-05-14T07:03:31.011Z,6196.00
2018-05-14T07:04:30.993Z,6184.00
2018-05-14T07:05:30.966Z,6172.00
2018-05-14T07:06:30.994Z,6172.00
2018-05-14T07:07:30.925Z,6172.00
2018-05-14T07:08:30.899Z,6176.00
2018-05-14T07:09:30.881Z,6184.00
2018-05-14T07:10:31.015Z,6172.00
2018-05-14T07:11:30.844Z,6148.00
2018-05-14T07:12:30.820Z,6152.00
2018-05-14T07:13:30.840Z,6152.00
2018-05-14T07:14:30.769Z,6140.00
2018-05-14T07:15:30.750Z,6128.00
2018-05-14T07:16:30.734Z,6120.00
2018-05-14T07:17:30.752Z,6116.00
2018-05-14T07:18:30.751Z,6100.00
2018-05-14T07:19:30.668Z,6088.00
2018-05-14T07:20:30.643Z,6084.00
2018-05-14T07:21:30.620Z,6080.00
2018-05-14T07:22:30.602Z,6060.00
2018-05-14T07:23:30.645Z,6056.00
2018-05-14T07:24:30.558Z,6052.00
2018-05-14T07:25:30.759Z,6020.00
2018-05-14T07:26:30.515Z,5996.00
2018-05-14T07:27:30.554Z,5968.00
2018-05-14T07:28:30.478Z,5948.00
2018-05-14T07:29:30.456Z,5940.00
2018-05-14T07:30:30.430Z,5940.00
2018-05-14T07:31:30.410Z,5932.00
2018-05-14T07:32:30.433Z,5948.00
2018-05-14T07:33:30.371Z,5956.00
2018-05-14T07:34:30.393Z,5944.00
2018-05-14T07:35:30.324Z,5936.00
2018-05-14T07:36:30.313Z,5940.00
2018-05-14T07:37:30.292Z,5948.00
2018-05-14T07:38:30.258Z,5944.00
2018-05-14T07:39:30.306Z,5932.00
2018-05-14T07:40:30.233Z,5940.00
2018-05-14T07:41:30.201Z,5956.00
2018-05-14T07:42:30.184Z,5956.00
2018-05-14T07:43:30.159Z,5952.00
2018-05-14T07:44:30.218Z,5936.00
2018-05-14T07:45:30.123Z,5936.00
2018-05-14T07:46:30.100Z,5936.00
2018-05-14T07:47:30.094Z,5916.00
2018-05-14T07:48:30.060Z,5900.00
2018-05-14T07:49:30.107Z,5880.00
2018-05-14T07:50:30.013Z,5848.00
2018-05-14T07:51:30.012Z,5832.00
2018-05-14T07:52:29.969Z,5824.00
2018-05-14T07:53:29.975Z,5792.00
2018-05-14T07:54:29.992Z,5840.00
2018-05-14T07:55:29.935Z,5856.00
2018-05-14T07:56:29.889Z,5868.00
2018-05-14T07:57:29.938Z,5848.00
2018-05-14T07:58:29.943Z,5864.00
2018-05-14T07:59:29.873Z,5864.00
2018-05-14T08:00:29.804Z,5852.00
2018-05-14T08:01:29.789Z,5812.00
2018-05-14T08:02:29.807Z,5796.00
2018-05-14T08:03:29.745Z,5796.00
2018-05-14T08:04:29.718Z,5772.00
2018-05-14T08:05:29.702Z,5732.00
2018-05-14T08:06:29.721Z,5656.00
2018-05-14T08:07:29.702Z,5632.00
2018-05-14T08:08:29.688Z,5668.00
2018-05-14T08:09:29.617Z,5624.00
2018-05-14T08:10:29.597Z,5616.00
2018-05-14T08:11:29.573Z,5572.00
2018-05-14T08:12:29.555Z,5532.00
2018-05-14T08:13:29.587Z,5512.00
2018-05-14T08:14:29.522Z,5548.00
2018-05-14T08:15:29.499Z,5564.00
2018-05-14T08:16:29.544Z,5612.00
2018-05-14T08:17:29.498Z,5584.00
2018-05-14T08:18:29.434Z,5516.00
2018-05-14T08:19:29.417Z,5508.00
2018-05-14T08:20:29.393Z,5584.00
2018-05-14T08:21:29.413Z,5668.00
2018-05-14T08:22:29.354Z,5656.00
2018-05-14T08:23:29.433Z,5620.00
2018-05-14T08:24:29.362Z,5652.00
2018-05-14T08:25:29.289Z,5668.00
2018-05-14T08:26:29.320Z,5652.00
2018-05-14T08:27:29.257Z,5660.00
2018-05-14T08:28:29.231Z,5676.00
2018-05-14T08:29:29.210Z,5644.00
2018-05-14T08:30:29.235Z,5640.00
2018-05-14T08:31:29.243Z,5656.00
2018-05-14T08:32:29.149Z,5656.00
2018-05-14T08:33:29.135Z,5660.00
2018-05-14T08:34:29.156Z,5680.00
2018-05-14T08:35:29.089Z,5644.00
2018-05-14T08:36:29.071Z,5604.00
2018-05-14T08:37:29.047Z,5604.00
2018-05-14T08:38:29.026Z,5704.00
2018-05-14T08:39:29.072Z,5756.00
2018-05-14T08:40:28.986Z,5796.00
2018-05-14T08:41:29.033Z,5824.00
2018-05-14T08:42:28.967Z,5856.00
2018-05-14T08:43:28.935Z,5848.00
2018-05-14T08:44:28.916Z,5840.00
2018-05-14T08:45:28.888Z,5812.00
2018-05-14T08:46:28.908Z,5772.00
2018-05-14T08:47:28.846Z,5728.00
2018-05-14T08:48:28.879Z,5668.00
2018-05-14T08:49:28.808Z,5620.00
2018-05-14T08:50:28.790Z,5576.00
2018-05-14T08:51:28.766Z,5532.00
2018-05-14T08:52:28.785Z,5480.00
2018-05-14T08:53:28.728Z,5412.00
2018-05-14T08:54:28.730Z,5392.00
2018-05-14T08:55:28.691Z,5352.00
2018-05-14T08:56:28.671Z,5324.00
2018-05-14T08:57:28.722Z,5332.00
2018-05-14T08:58:28.630Z,5336.00
2018-05-14T08:59:28.610Z,5336.00
2018-05-14T09:00:28.598Z,5316.00
2018-05-14T09:01:28.569Z,5320.00
2018-05-14T09:02:28.603Z,5356.00
2018-05-14T09:03:28.530Z,5368.00
2018-05-14T09:04:28.515Z,5348.00
2018-05-14T09:05:28.497Z,5332.00
2018-05-14T09:06:28.473Z,5380.00
2018-05-14T09:07:28.513Z,5396.00
2018-05-14T09:08:28.437Z,5388.00
2018-05-14T09:09:28.422Z,5404.00
2018-05-14T09:10:28.396Z,5424.00
2018-05-14T09:11:28.374Z,5428.00
2018-05-14T09:12:28.402Z,5436.00
2018-05-14T09:13:28.379Z,5432.00
2018-05-14T09:14:28.318Z,5404.00
2018-05-14T09:15:28.293Z,5372.00
2018-05-14T09:16:28.277Z,5400.00
2018-05-14T09:17:28.257Z,5400.00
2018-05-14T09:18:28.279Z,5376.00
2018-05-14T09:19:28.254Z,5364.00
2018-05-14T09:20:28.199Z,5352.00
2018-05-14T09:21:28.221Z,5376.00
2018-05-14T09:22:28.164Z,5388.00
2018-05-14T09:23:28.139Z,5392.00
2018-05-14T09:24:28.645Z,5380.00
2018-05-14T09:25:28.160Z,5356.00
2018-05-14T09:26:28.084Z,5340.00
2018-05-14T09:27:28.058Z,5336.00
2018-05-14T09:28:28.039Z,5340.00
2018-05-14T09:29:28.089Z,5348.00
2018-05-14T09:30:28.001Z,5352.00
2018-05-14T09:31:27.989Z,5340.00
2018-05-14T09:32:27.966Z,5328.00
2018-05-14T09:33:27.943Z,5344.00
2018-05-14T09:34:27.971Z,5352.00
2018-05-14T09:35:27.908Z,5368.00
2018-05-14T09:36:27.897Z,5352.00
2018-05-14T09:37:27.868Z,5332.00
2018-05-14T09:38:27.896Z,5288.00
2018-05-14T09:39:27.828Z,5268.00
2018-05-14T09:40:27.808Z,5252.00
2018-05-14T09:41:27.790Z,5204.00
2018-05-14T09:42:27.768Z,5156.00
2018-05-14T09:43:27.795Z,5136.00
2018-05-14T09:44:27.749Z,5116.00
2018-05-14T09:45:27.761Z,5116.00
2018-05-14T09:46:27.704Z,5104.00
2018-05-14T09:47:27.673Z,5080.00
2018-05-14T09:48:27.656Z,5060.00
2018-05-14T09:49:27.691Z,5020.00
2018-05-14T09:50:27.630Z,4988.00
2018-05-14T09:51:27.595Z,4968.00
2018-05-14T09:52:27.574Z,4948.00
2018-05-14T09:53:27.557Z,4956.00
2018-05-14T09:54:27.585Z,4932.00
2018-05-14T09:55:27.568Z,4896.00
2018-05-14T09:56:27.514Z,4872.00
2018-05-14T09:57:27.480Z,4848.00
2018-05-14T09:58:27.506Z,4804.00
2018-05-14T09:59:27.439Z,4768.00
2018-05-14T10:00:27.476Z,4740.00
2018-05-14T10:01:27.403Z,4724.00
2018-05-14T10:02:27.381Z,4708.00
2018-05-14T10:03:27.418Z,4684.00
2018-05-14T10:04:27.343Z,4680.00
2018-05-14T10:05:27.381Z,4672.00
2018-05-14T10:06:27.309Z,4668.00
2018-05-14T10:07:27.288Z,4680.00
2018-05-14T10:08:27.278Z,4692.00
2018-05-14T10:09:27.247Z,4716.00
2018-05-14T10:10:27.281Z,4684.00
2018-05-14T10:11:27.239Z,4696.00
2018-05-14T10:12:27.204Z,4688.00
2018-05-14T10:13:27.174Z,4676.00
2018-05-14T10:14:27.217Z,4648.00
2018-05-14T10:15:27.132Z,4680.00
2018-05-14T10:16:27.175Z,4676.00
2018-05-14T10:17:27.095Z,4672.00
2018-05-14T10:18:27.076Z,4688.00
2018-05-14T10:19:27.058Z,4700.00
2018-05-14T10:20:27.034Z,4708.00
2018-05-14T10:21:27.060Z,4696.00
2018-05-14T10:22:27.042Z,4696.00
2018-05-14T10:23:26.975Z,4696.00
2018-05-14T10:24:26.956Z,4668.00
2018-05-14T10:25:26.934Z,4648.00
2018-05-14T10:26:26.972Z,4632.00
2018-05-14T10:27:26.901Z,4648.00
2018-05-14T10:28:26.934Z,4668.00
2018-05-14T10:29:26.910Z,4660.00
2018-05-14T10:30:26.838Z,4620.00
2018-05-14T10:31:26.816Z,4628.00
2018-05-14T10:32:26.851Z,4608.00
2018-05-14T10:33:26.781Z,4572.00
2018-05-14T10:34:26.810Z,4556.00
2018-05-14T10:35:26.737Z,4536.00
2018-05-14T10:36:26.764Z,4488.00
2018-05-14T10:37:26.703Z,4460.00
2018-05-14T10:38:26.731Z,4452.00
2018-05-14T10:39:26.667Z,4448.00
2018-05-14T10:40:26.648Z,4460.00
2018-05-14T10:41:26.625Z,4456.00
2018-05-14T10:42:26.610Z,4448.00
2018-05-14T10:43:26.636Z,4428.00
2018-05-14T10:44:26.571Z,4404.00
2018-05-14T10:45:26.593Z,4448.00
2018-05-14T10:46:26.533Z,4480.00
2018-05-14T10:47:26.508Z,4520.00
2018-05-14T10:48:26.491Z,4508.00
2018-05-14T10:49:26.475Z,4504.00
2018-05-14T10:50:26.495Z,4496.00
2018-05-14T10:51:26.477Z,4484.00
2018-05-14T10:52:26.454Z,4468.00
2018-05-14T10:53:26.400Z,4440.00
2018-05-14T10:54:26.419Z,4412.00
2018-05-14T10:55:26.354Z,4380.00
2018-05-14T10:56:26.341Z,4320.00
2018-05-14T10:57:26.316Z,4288.00
2018-05-14T10:58:26.299Z,4240.00
2018-05-14T10:59:26.317Z,4204.00
2018-05-14T11:00:26.259Z,4176.00
2018-05-14T11:01:26.239Z,4208.00
2018-05-14T11:02:26.268Z,4256.00
2018-05-14T11:03:26.203Z,4276.00
2018-05-14T11:04:26.234Z,4280.00
2018-05-14T11:05:26.157Z,4232.00
2018-05-14T11:06:26.136Z,4244.00
2018-05-14T11:07:26.119Z,4228.00
2018-05-14T11:08:26.149Z,4248.00
2018-05-14T11:09:26.077Z,4296.00
2018-05-14T11:10:26.065Z,4348.00
2018-05-14T11:11:26.040Z,4380.00
2018-05-14T11:12:26.020Z,4384.00
2018-05-14T11:13:26.068Z,4384.00
2018-05-14T11:14:25.985Z,4364.00
2018-05-14T11:15:25.965Z,4332.00
2018-05-14T11:16:25.992Z,4264.00
2018-05-14T11:17:25.936Z,4212.00
2018-05-14T11:18:25.909Z,4140.00
2018-05-14T11:19:25.938Z,4128.00
2018-05-14T11:20:25.869Z,4128.00
2018-05-14T11:21:25.889Z,4152.00
2018-05-14T11:22:25.870Z,4156.00
2018-05-14T11:23:25.810Z,4148.00
2018-05-14T11:24:25.822Z,4168.00
2018-05-14T11:25:25.774Z,4208.00
2018-05-14T11:26:25.820Z,4240.00
2018-05-14T11:27:25.840Z,4264.00
2018-05-14T11:28:25.713Z,4276.00
2018-05-14T11:29:25.693Z,4284.00
2018-05-14T11:30:25.671Z,4296.00
2018-05-14T11:31:25.721Z,4300.00
2018-05-14T11:32:25.636Z,4296.00
2018-05-14T11:33:25.625Z,4292.00
2018-05-14T11:34:25.595Z,4272.00
2018-05-14T11:35:25.589Z,4276.00
2018-05-14T11:36:25.683Z,4280.00
2018-05-14T11:37:25.584Z,4268.00
2018-05-14T11:38:25.517Z,4264.00
2018-05-14T11:39:25.501Z,4236.00
2018-05-14T11:40:25.481Z,4220.00
2018-05-14T11:41:25.516Z,4208.00
2018-05-14T11:42:25.440Z,4180.00
2018-05-14T11:43:25.682Z,4168.00
2018-05-14T11:44:25.404Z,4152.00
2018-05-14T11:45:25.386Z,4156.00
2018-05-14T11:46:25.423Z,4184.00
2018-05-14T11:47:25.349Z,4200.00
2018-05-14T11:48:25.323Z,4236.00
2018-05-14T11:49:25.308Z,4288.00
2018-05-14T11:50:25.290Z,4332.00
2018-05-14T11:51:25.328Z,4364.00
2018-05-14T11:52:25.249Z,4380.00
2018-05-14T11:53:25.236Z,4388.00
2018-05-14T11:54:25.209Z,4376.00
2018-05-14T11:55:25.193Z,4360.00
2018-05-14T11:56:25.212Z,4348.00
2018-05-14T11:57:25.151Z,4340.00
2018-05-14T11:58:25.132Z,4344.00
2018-05-14T11:59:25.172Z,4344.00
2018-05-14T12:00:25.093Z,4344.00
2018-05-14T12:01:25.081Z,4344.00
2018-05-14T12:02:25.101Z,4324.00
2018-05-14T12:03:25.040Z,4328.00
2018-05-14T12:04:25.016Z,4356.00
2018-05-14T12:05:25.005Z,4388.00
2018-05-14T12:06:24.983Z,4404.00
2018-05-14T12:07:25.016Z,4412.00
2018-05-14T12:08:24.941Z,4412.00
2018-05-14T12:09:24.925Z,4404.00
2018-05-14T12:10:24.898Z,4380.00
2018-05-14T12:11:24.900Z,4368.00
2018-05-14T12:12:24.902Z,4364.00
2018-05-14T12:13:24.853Z,4368.00
2018-05-14T12:14:24.823Z,4380.00
2018-05-14T12:15:24.802Z,4384.00
2018-05-14T12:16:24.810Z,4376.00
2018-05-14T12:17:24.838Z,4376.00
2018-05-14T12:18:24.748Z,4364.00
2018-05-14T12:19:24.724Z,4380.00
2018-05-14T12:20:24.707Z,4388.00
2018-05-14T12:21:24.691Z,4384.00
2018-05-14T12:22:24.733Z,4380.00